Time;durP1;ratioP1;P1;durP2;ratioP2;P2;SDS_P1;SDS_P2;PMS_P1;PMS_P2;Temp;Humidity;BMP_temperature;BMP_pressure;BME280_temperature;BME280_humidity;BME280_pressure;Samples;Min_cycle;Max_cycle;Signal;HPM_P1;HPM_P2
2021/04/24 00:00:49;;;;;;;15.80;7.63;;;;;;;20.21;33.96;102504.22;5072435;28;20021;-75
2021/04/24 00:03:15;;;;;;;17.00;7.53;;;;;;;20.16;33.96;102501.63;5072340;28;20104;-76
2021/04/24 00:05:43;;;;;;;19.08;8.60;;;;;;;20.09;33.99;102504.09;5072306;28;20104;-77
2021/04/24 00:08:12;;;;;;;16.10;7.80;;;;;;;20.13;33.88;102502.31;5072221;28;20028;-76
2021/04/24 00:10:41;;;;;;;20.15;7.82;;;;;;;20.14;34.10;102500.34;5072389;28;20032;-75
2021/04/24 00:13:08;;;;;;;14.93;7.82;;;;;;;20.17;34.02;102496.88;5072316;28;20024;-75
2021/04/24 00:15:36;;;;;;;12.63;6.40;;;;;;;20.28;33.75;102494.53;5072307;28;20371;-75
2021/04/24 00:18:03;;;;;;;13.27;7.05;;;;;;;20.23;33.82;102498.31;5072241;28;20056;-76
2021/04/24 00:20:29;;;;;;;18.80;7.15;;;;;;;20.22;34.19;102496.69;5072228;28;20025;-76
2021/04/24 00:22:55;;;;;;;14.35;7.10;;;;;;;20.22;33.94;102494.72;5072211;28;20082;-76
2021/04/24 00:25:21;;;;;;;16.08;7.97;;;;;;;20.14;33.96;102490.03;5072211;28;20073;-75
2021/04/24 00:27:46;;;;;;;12.70;7.22;;;;;;;19.78;34.65;102493.34;5072195;28;20048;-76
2021/04/24 00:30:14;;;;;;;14.63;7.68;;;;;;;20.07;34.16;102494.50;5071699;28;20123;-75
2021/04/24 00:32:39;;;;;;;13.43;7.43;;;;;;;20.14;34.27;102486.47;5072095;28;20028;-76
2021/04/24 00:35:06;;;;;;;13.80;7.20;;;;;;;20.16;34.06;102489.69;5072107;28;20098;-76
2021/04/24 00:37:32;;;;;;;14.63;7.88;;;;;;;20.13;34.26;102487.63;5072152;28;20017;-75
2021/04/24 00:39:58;;;;;;;13.07;7.25;;;;;;;20.14;34.29;102489.22;5072068;28;20093;-76
2021/04/24 00:42:24;;;;;;;13.23;7.63;;;;;;;20.13;34.12;102487.63;5072081;28;20097;-76
2021/04/24 00:44:51;;;;;;;12.10;8.57;;;;;;;19.60;35.09;102486.25;5072084;28;20021;-76
2021/04/24 00:47:18;;;;;;;15.90;8.85;;;;;;;19.81;34.66;102483.56;5072048;28;20027;-76
2021/04/24 00:49:44;;;;;;;16.52;9.32;;;;;;;19.97;34.04;102487.38;5071829;28;20032;-76
2021/04/24 00:52:10;;;;;;;11.63;8.75;;;;;;;19.95;34.01;102496.03;5071904;28;20029;-76
2021/04/24 00:54:35;;;;;;;15.35;8.68;;;;;;;19.91;33.93;102480.38;5071905;28;20033;-76
2021/04/24 00:57:02;;;;;;;15.63;9.77;;;;;;;19.95;33.83;102484.13;5071900;28;20032;-76
2021/04/24 00:59:29;;;;;;;14.60;9.05;;;;;;;19.87;33.97;102493.28;5071911;28;20028;-76
2021/04/24 01:01:55;;;;;;;18.50;9.13;;;;;;;19.86;33.77;102495.25;5075289;28;20111;-76
2021/04/24 01:04:21;;;;;;;18.08;8.60;;;;;;;19.87;33.76;102484.97;5075446;28;20451;-75
2021/04/24 01:06:47;;;;;;;14.02;8.07;;;;;;;19.85;33.71;102484.50;5075379;28;20032;-76
2021/04/24 01:09:13;;;;;;;14.85;8.10;;;;;;;19.38;34.60;102488.06;5075267;28;20029;-75
2021/04/24 01:11:38;;;;;;;15.60;9.48;;;;;;;19.24;34.67;102487.47;5075330;28;20392;-75
2021/04/24 01:14:04;;;;;;;13.02;7.75;;;;;;;19.23;34.62;102485.03;5075309;28;20592;-76
2021/04/24 01:16:30;;;;;;;17.80;7.93;;;;;;;19.45;34.36;102484.78;5075341;28;20479;-75
2021/04/24 01:18:56;;;;;;;14.25;7.40;;;;;;;19.67;33.80;102490.13;5075217;28;20024;-76
2021/04/24 01:21:23;;;;;;;9.82;6.90;;;;;;;19.54;34.06;102484.75;5074927;28;20031;-76
2021/04/24 01:23:52;;;;;;;12.75;6.72;;;;;;;19.61;33.81;102483.13;5073955;28;20086;-76
2021/04/24 01:26:18;;;;;;;12.88;7.63;;;;;;;19.57;33.97;102484.13;5075095;28;20074;-76
2021/04/24 01:28:45;;;;;;;15.73;9.88;;;;;;;19.52;34.11;102484.28;5075028;28;20430;-76
2021/04/24 01:31:10;;;;;;;16.80;10.02;;;;;;;19.58;33.75;102486.59;5074580;28;20048;-76
2021/04/24 01:33:36;;;;;;;19.50;10.75;;;;;;;19.64;33.73;102485.22;5074983;28;20412;-76
2021/04/24 01:36:02;;;;;;;17.63;9.20;;;;;;;19.55;33.72;102481.66;5074964;28;20073;-76
2021/04/24 01:38:27;;;;;;;20.02;11.20;;;;;;;19.11;34.30;102474.59;5074824;28;20121;-75
2021/04/24 01:40:53;;;;;;;22.15;9.60;;;;;;;19.33;34.10;102481.88;5074850;28;20036;-76
2021/04/24 01:43:18;;;;;;;16.55;8.43;;;;;;;19.35;34.18;102485.16;5074817;28;20081;-76
2021/04/24 01:45:44;;;;;;;13.75;8.40;;;;;;;19.36;34.04;102482.06;5074763;28;20111;-76
2021/04/24 01:48:10;;;;;;;21.45;9.88;;;;;;;19.37;34.10;102477.31;5074699;28;20035;-76
2021/04/24 01:50:45;;;;;;;18.05;8.63;;;;;;;18.83;35.09;102483.31;5074323;28;20064;-75
2021/04/24 01:53:19;;;;;;;10.77;7.00;;;;;;;18.68;35.18;102477.44;5074578;28;20036;-76
2021/04/24 01:55:45;;;;;;;19.25;8.85;;;;;;;18.63;35.11;102474.81;5074517;28;20631;-76
2021/04/24 01:58:15;;;;;;;14.05;8.60;;;;;;;18.64;35.11;102473.66;5074573;28;20482;-76
2021/04/24 02:00:50;;;;;;;15.32;7.80;;;;;;;18.62;35.08;102479.53;5074428;28;20119;-76
2021/04/24 02:03:16;;;;;;;16.55;9.75;;;;;;;18.51;35.04;102465.22;5074446;28;20029;-75
2021/04/24 02:05:45;;;;;;;13.75;9.25;;;;;;;18.50;35.00;102473.81;5074345;28;20031;-76
2021/04/24 02:08:16;;;;;;;16.40;9.70;;;;;;;18.42;34.96;102475.44;5074365;28;20027;-75
2021/04/24 02:10:45;;;;;;;19.15;11.55;;;;;;;18.48;35.09;102467.78;5074054;28;20096;-76
2021/04/24 02:13:14;;;;;;;17.80;10.27;;;;;;;18.67;34.74;102470.28;5073631;28;20029;-75
2021/04/24 02:15:40;;;;;;;24.20;11.77;;;;;;;18.94;34.28;102466.34;5074178;28;20111;-76
2021/04/24 02:18:06;;;;;;;15.18;9.18;;;;;;;18.95;34.28;102465.19;5072849;28;20052;-76
2021/04/24 02:20:36;;;;;;;15.90;10.13;;;;;;;18.97;34.21;102472.03;5074080;28;20059;-76
2021/04/24 02:23:03;;;;;;;18.05;10.13;;;;;;;18.94;34.10;102466.34;5073912;28;20077;-76
2021/04/24 02:25:28;;;;;;;18.27;9.43;;;;;;;18.98;34.30;102473.66;5073953;28;20489;-75
2021/04/24 02:27:55;;;;;;;14.40;8.63;;;;;;;18.96;34.45;102478.69;5073485;28;20028;-75
2021/04/24 02:30:22;;;;;;;19.77;9.63;;;;;;;19.06;34.19;102472.84;5073385;28;20133;-76
2021/04/24 02:32:48;;;;;;;17.90;9.20;;;;;;;19.09;34.08;102476.91;5073624;28;20027;-76
2021/04/24 02:35:18;;;;;;;19.42;10.52;;;;;;;19.08;34.10;102478.84;5072476;28;20040;-76
2021/04/24 02:37:43;;;;;;;15.75;9.07;;;;;;;19.12;34.18;102484.56;5073678;28;20016;-76
2021/04/24 02:40:18;;;;;;;15.30;9.98;;;;;;;19.08;34.10;102489.13;5073548;28;20047;-75
2021/04/24 02:42:44;;;;;;;17.55;10.15;;;;;;;19.09;34.25;102483.25;5073710;28;20190;-75
2021/04/24 02:45:13;;;;;;;19.50;9.98;;;;;;;19.00;34.30;102484.41;5073581;28;20032;-76
2021/04/24 02:47:39;;;;;;;16.10;9.45;;;;;;;18.93;34.53;102484.09;5073508;28;20021;-76
2021/04/24 02:50:08;;;;;;;14.63;9.02;;;;;;;18.88;34.35;102482.31;5073230;28;20016;-76
2021/04/24 02:52:34;;;;;;;17.30;10.27;;;;;;;18.85;34.14;102492.09;5071721;28;20032;-76
2021/04/24 02:55:00;;;;;;;19.90;10.13;;;;;;;18.86;34.32;102484.59;5053737;28;20036;-76
2021/04/24 02:57:25;;;;;;;16.40;9.40;;;;;;;18.82;34.33;102478.91;5053187;28;20025;-75
2021/04/24 02:59:52;;;;;;;17.05;9.32;;;;;;;18.83;34.27;102480.53;5053367;28;20021;-75
2021/04/24 03:02:18;;;;;;;17.60;10.65;;;;;;;18.74;34.37;102479.72;5053297;28;20029;-75
2021/04/24 03:04:45;;;;;;;20.80;10.57;;;;;;;18.76;34.37;102474.66;5053245;28;20033;-75
2021/04/24 03:07:11;;;;;;;21.27;10.63;;;;;;;18.80;34.32;102477.59;5053240;28;20021;-76
2021/04/24 03:09:37;;;;;;;15.88;8.93;;;;;;;18.81;34.31;102477.25;5053026;28;20059;-75
2021/04/24 03:12:03;;;;;;;18.30;10.45;;;;;;;18.77;34.40;102481.03;5052949;28;20630;-76
2021/04/24 03:14:29;;;;;;;20.63;10.68;;;;;;;18.77;34.76;102475.47;5053075;28;20052;-76
2021/04/24 03:16:55;;;;;;;16.73;8.73;;;;;;;18.76;34.73;102473.84;5053050;28;20029;-75
2021/04/24 03:19:20;;;;;;;18.73;8.45;;;;;;;18.74;34.79;102478.88;5052950;28;20060;-75
2021/04/24 03:21:46;;;;;;;15.48;9.35;;;;;;;18.83;34.42;102474.19;5052914;28;20043;-76
2021/04/24 03:24:12;;;;;;;14.93;10.02;;;;;;;18.88;34.53;102476.75;5052043;28;20383;-76
2021/04/24 03:26:37;;;;;;;14.82;9.13;;;;;;;18.95;34.76;102473.50;5052832;28;20099;-76
2021/04/24 03:29:04;;;;;;;18.85;9.35;;;;;;;19.00;34.83;102467.78;5051632;28;20369;-76
2021/04/24 03:31:30;;;;;;;18.40;8.80;;;;;;;19.12;34.83;102470.72;5052401;28;20128;-76
2021/04/24 03:33:55;;;;;;;13.57;8.10;;;;;;;19.17;34.87;102476.06;5052727;28;20536;-75
2021/04/24 03:36:21;;;;;;;15.93;8.80;;;;;;;19.24;35.16;102462.53;5052760;28;20490;-75
2021/04/24 03:38:47;;;;;;;14.70;9.00;;;;;;;19.33;35.01;102473.56;5052611;28;20091;-76
2021/04/24 03:41:13;;;;;;;20.75;8.93;;;;;;;19.39;35.11;102469.50;5052725;28;20036;-76
2021/04/24 03:43:39;;;;;;;14.18;9.20;;;;;;;19.51;35.21;102472.38;5052542;28;20028;-75
2021/04/24 03:46:05;;;;;;;14.85;7.90;;;;;;;19.62;35.08;102465.34;5052549;28;20100;-75
2021/04/24 03:48:32;;;;;;;18.25;9.00;;;;;;;19.56;35.04;102474.16;5052574;28;20108;-75
2021/04/24 03:50:58;;;;;;;16.00;8.57;;;;;;;19.97;34.19;102467.16;5052207;28;20033;-76
2021/04/24 03:53:23;;;;;;;15.30;8.32;;;;;;;19.91;34.32;102463.75;5052506;28;20032;-75
2021/04/24 03:55:49;;;;;;;15.60;8.02;;;;;;;19.75;34.84;102473.78;5052475;28;20078;-76
2021/04/24 03:58:15;;;;;;;14.80;8.48;;;;;;;19.91;34.69;102466.53;5052356;28;20032;-76
2021/04/24 04:00:41;;;;;;;15.25;8.40;;;;;;;19.58;35.34;102471.91;5052387;28;20573;-76
2021/04/24 04:03:08;;;;;;;17.70;8.50;;;;;;;19.50;35.77;102470.78;5052341;28;20025;-76
2021/04/24 04:05:35;;;;;;;20.92;9.05;;;;;;;19.74;35.73;102466.63;5052268;28;20493;-75
2021/04/24 04:08:02;;;;;;;22.65;10.00;;;;;;;20.16;35.30;102467.50;5052307;28;20472;-76
2021/04/24 04:10:28;;;;;;;16.38;8.75;;;;;;;20.34;35.32;102466.25;5052073;28;20029;-75
2021/04/24 04:12:55;;;;;;;19.67;8.00;;;;;;;20.32;35.50;102468.53;5052323;28;20033;-76
2021/04/24 04:15:23;;;;;;;17.42;8.15;;;;;;;20.34;35.48;102471.81;5052377;28;20043;-75
2021/04/24 04:18:05;;;;;;;18.25;8.57;;;;;;;20.03;36.19;102469.41;5050926;28;20033;-75
2021/04/24 04:20:31;;;;;;;18.80;8.77;;;;;;;20.14;36.01;102473.41;5052261;28;20029;-75
2021/04/24 04:22:58;;;;;;;17.00;8.38;;;;;;;20.27;35.77;102479.03;5052108;28;20386;-76
2021/04/24 04:25:25;;;;;;;17.05;8.65;;;;;;;20.42;35.55;102475.66;5052180;28;20033;-75
2021/04/24 04:27:50;;;;;;;15.48;8.55;;;;;;;19.97;36.55;102475.47;5052223;28;20052;-75
2021/04/24 04:30:17;;;;;;;13.13;8.15;;;;;;;19.86;36.75;102477.78;5051666;28;20120;-76
2021/04/24 04:32:44;;;;;;;17.05;7.78;;;;;;;20.23;36.18;102473.34;5052079;28;20475;-76
2021/04/24 04:35:11;;;;;;;15.07;7.50;;;;;;;20.30;35.84;102472.81;5053055;28;20127;-75
2021/04/24 04:37:37;;;;;;;18.50;9.45;;;;;;;20.35;35.97;102478.97;5055998;28;20032;-75
2021/04/24 04:40:05;;;;;;;19.33;9.60;;;;;;;20.36;35.80;102483.38;5056053;28;20029;-76
2021/04/24 04:42:31;;;;;;;20.00;8.10;;;;;;;20.29;36.02;102491.41;5055895;28;20678;-76
2021/04/24 04:44:56;;;;;;;16.92;8.07;;;;;;;20.00;36.54;102491.44;5055891;28;20029;-75
2021/04/24 04:47:22;;;;;;;16.48;9.20;;;;;;;20.26;36.18;102480.19;5055885;28;20052;-75
2021/04/24 04:49:48;;;;;;;18.38;9.15;;;;;;;20.29;36.07;102488.66;5055730;28;20032;-75
2021/04/24 04:52:13;;;;;;;14.68;8.73;;;;;;;20.35;35.98;102494.81;5055542;28;20534;-75
2021/04/24 04:54:39;;;;;;;18.05;8.15;;;;;;;20.42;35.88;102493.13;5055482;28;20028;-76
2021/04/24 04:57:05;;;;;;;18.55;10.20;;;;;;;20.36;36.20;102502.00;5054338;28;20033;-76
2021/04/24 04:59:30;;;;;;;19.38;10.18;;;;;;;20.36;36.00;102502.81;5055622;28;20435;-75
2021/04/24 05:01:56;;;;;;;19.20;10.10;;;;;;;20.33;36.08;102497.94;5055494;28;20090;-75
2021/04/24 05:04:22;;;;;;;16.17;9.70;;;;;;;20.39;36.03;102501.31;5055556;28;20037;-75
2021/04/24 05:06:50;;;;;;;19.20;9.48;;;;;;;20.31;36.49;102497.44;5055584;28;20502;-76
2021/04/24 05:09:19;;;;;;;25.83;11.43;;;;;;;20.31;36.72;102504.97;5055440;28;20094;-75
2021/04/24 05:11:45;;;;;;;24.30;11.75;;;;;;;20.23;36.83;102512.19;5055202;28;20111;-75
2021/04/24 05:14:11;;;;;;;22.52;12.02;;;;;;;20.32;36.88;102509.34;5055345;28;20067;-75
2021/04/24 05:16:37;;;;;;;22.73;11.82;;;;;;;20.21;37.32;102523.63;5055293;28;20039;-75
2021/04/24 05:19:04;;;;;;;23.20;11.60;;;;;;;20.16;37.60;102518.28;5055221;28;20100;-76
2021/04/24 05:21:30;;;;;;;18.83;11.02;;;;;;;20.09;37.97;102519.94;5055186;28;20032;-75
2021/04/24 05:23:55;;;;;;;22.77;11.60;;;;;;;20.10;38.02;102533.50;5055099;28;20032;-76
2021/04/24 05:26:21;;;;;;;20.05;11.98;;;;;;;20.15;38.04;102530.53;5055064;28;20029;-75
2021/04/24 05:28:47;;;;;;;19.00;10.30;;;;;;;20.19;38.25;102533.44;5054926;28;20024;-76
2021/04/24 05:31:13;;;;;;;27.98;12.10;;;;;;;20.66;37.44;102533.34;5054645;28;20056;-75
2021/04/24 05:33:38;;;;;;;22.55;11.77;;;;;;;20.56;37.66;102526.22;5054978;28;20025;-76
2021/04/24 05:36:09;;;;;;;23.65;12.52;;;;;;;20.37;38.26;102528.59;5054920;28;20111;-75
2021/04/24 05:38:35;;;;;;;19.08;11.30;;;;;;;20.45;38.28;102519.44;5054950;28;20029;-76
2021/04/24 05:41:00;;;;;;;27.85;12.40;;;;;;;20.81;37.80;102526.34;5054879;28;20033;-76
2021/04/24 05:43:26;;;;;;;25.63;12.43;;;;;;;20.99;37.60;102517.50;5054793;28;20384;-76
2021/04/24 05:45:51;;;;;;;23.33;11.25;;;;;;;21.05;37.59;102516.16;5054705;28;20021;-75
2021/04/24 05:48:17;;;;;;;21.08;11.65;;;;;;;20.95;37.79;102515.78;5053689;28;20029;-75
2021/04/24 05:50:43;;;;;;;27.98;12.13;;;;;;;20.95;37.88;102510.22;5054468;28;20037;-76
2021/04/24 05:53:09;;;;;;;24.23;12.07;;;;;;;20.69;38.51;102515.97;5054514;28;20031;-75
2021/04/24 05:55:36;;;;;;;19.83;10.75;;;;;;;20.96;38.02;102507.09;5054629;28;20059;-74
2021/04/24 05:58:01;;;;;;;23.02;10.98;;;;;;;21.06;37.77;102506.66;5054493;28;20029;-75
2021/04/24 06:00:27;;;;;;;22.92;11.20;;;;;;;21.05;37.78;102509.78;5054464;28;20035;-74
2021/04/24 06:02:53;;;;;;;19.85;9.88;;;;;;;21.24;37.56;102515.66;5054479;28;20036;-75
2021/04/24 06:05:18;;;;;;;22.13;10.75;;;;;;;20.99;38.12;102511.94;5060880;28;20387;-74
2021/04/24 06:07:44;;;;;;;16.30;10.70;;;;;;;20.96;38.39;102515.44;5073435;28;20035;-75
2021/04/24 06:10:13;;;;;;;20.00;10.32;;;;;;;21.02;38.12;102518.81;5073793;28;20016;-72
2021/04/24 06:12:40;;;;;;;18.98;10.52;;;;;;;20.95;38.58;102524.91;5073102;28;20474;-72
2021/04/24 06:15:08;;;;;;;22.45;10.65;;;;;;;21.05;38.37;102529.22;5073311;28;20029;-76
2021/04/24 06:17:33;;;;;;;23.58;10.50;;;;;;;21.17;38.05;102531.25;5073158;28;20082;-75
2021/04/24 06:19:59;;;;;;;19.00;11.00;;;;;;;21.27;37.83;102530.81;5072074;28;20490;-74
2021/04/24 06:22:25;;;;;;;17.20;9.57;;;;;;;21.28;37.83;102535.25;5072578;28;20060;-75
2021/04/24 06:24:51;;;;;;;16.13;9.70;;;;;;;21.25;37.80;102533.13;5073092;28;20482;-75
2021/04/24 06:27:16;;;;;;;17.55;9.13;;;;;;;21.33;37.78;102537.81;5073218;28;20100;-77
2021/04/24 06:29:42;;;;;;;16.92;9.60;;;;;;;21.43;37.37;102542.13;5072608;28;20036;-76
2021/04/24 06:32:08;;;;;;;19.73;11.15;;;;;;;21.54;37.22;102546.13;5073136;28;20024;-76
2021/04/24 06:34:34;;;;;;;15.88;8.63;;;;;;;21.85;36.41;102551.16;5073420;28;20028;-77
2021/04/24 06:37:00;;;;;;;19.38;9.60;;;;;;;21.63;37.13;102557.13;5073329;28;20029;-73
2021/04/24 06:39:25;;;;;;;18.88;9.07;;;;;;;21.79;36.82;102558.91;5071882;28;20025;-74
2021/04/24 06:41:51;;;;;;;21.95;9.52;;;;;;;21.83;36.91;102564.56;5071928;28;20020;-73
2021/04/24 06:44:17;;;;;;;12.77;7.90;;;;;;;22.10;36.70;102569.50;5071619;28;20042;-74
2021/04/24 06:46:43;;;;;;;16.75;9.27;;;;;;;21.97;36.84;102565.06;5072314;28;20024;-77
2021/04/24 06:49:09;;;;;;;22.67;9.32;;;;;;;21.86;37.29;102569.47;5072202;28;20035;-75
2021/04/24 06:51:35;;;;;;;17.23;8.10;;;;;;;21.88;37.37;102564.34;5071946;28;20093;-75
2021/04/24 06:54:00;;;;;;;16.60;9.75;;;;;;;22.05;37.22;102566.91;5070052;28;20092;-75
2021/04/24 06:56:26;;;;;;;23.33;8.05;;;;;;;22.19;37.14;102571.34;5055841;28;20025;-74
2021/04/24 06:58:52;;;;;;;15.82;8.52;;;;;;;22.26;36.96;102566.84;5054273;28;20021;-74
2021/04/24 07:01:17;;;;;;;14.00;8.73;;;;;;;22.35;36.93;102575.88;5055912;28;20134;-75
2021/04/24 07:03:43;;;;;;;23.52;9.32;;;;;;;22.73;36.13;102577.44;5055472;28;20021;-75
2021/04/24 07:06:09;;;;;;;14.70;8.35;;;;;;;22.69;35.79;102585.69;5055266;28;20029;-77
2021/04/24 07:08:34;;;;;;;17.45;8.27;;;;;;;22.41;36.48;102579.22;5054650;28;20568;-74
2021/04/24 07:11:00;;;;;;;18.02;9.32;;;;;;;22.80;35.51;102586.00;5053896;28;20132;-75
2021/04/24 07:13:25;;;;;;;19.73;8.10;;;;;;;23.02;34.97;102587.50;5053915;28;20414;-76
2021/04/24 07:15:51;;;;;;;13.63;8.38;;;;;;;23.05;34.97;102595.16;5053773;28;20394;-77
2021/04/24 07:18:16;;;;;;;17.40;8.82;;;;;;;22.98;34.85;102608.91;5054885;28;20077;-75
2021/04/24 07:20:42;;;;;;;17.75;7.80;;;;;;;22.76;35.07;102603.81;5058711;28;20060;-76
2021/04/24 07:23:08;;;;;;;15.05;8.15;;;;;;;22.49;35.74;102608.94;5070543;28;20031;-75
2021/04/24 07:25:34;;;;;;;13.30;7.57;;;;;;;22.56;35.56;102608.34;5067972;28;20028;-75
2021/04/24 07:28:00;;;;;;;12.32;8.65;;;;;;;22.89;34.78;102600.66;5070705;28;20158;-74
2021/04/24 07:30:27;;;;;;;23.35;8.55;;;;;;;22.90;34.49;102607.06;5070159;28;20056;-75
2021/04/24 07:32:52;;;;;;;14.52;7.78;;;;;;;22.77;34.69;102606.22;5070523;28;20023;-75
2021/04/24 07:35:18;;;;;;;14.57;8.20;;;;;;;22.91;34.64;102614.25;5070228;28;20021;-74
2021/04/24 07:37:44;;;;;;;16.25;8.20;;;;;;;22.94;34.21;102603.19;5070229;28;20509;-73
2021/04/24 07:40:10;;;;;;;14.73;7.28;;;;;;;22.76;34.50;102601.03;5069885;28;20458;-75
2021/04/24 07:42:36;;;;;;;13.63;7.97;;;;;;;22.84;34.23;102614.00;5070058;28;20024;-74
2021/04/24 07:45:03;;;;;;;14.95;8.20;;;;;;;22.98;33.96;102606.91;5069282;28;20047;-75
2021/04/24 07:47:29;;;;;;;14.05;7.05;;;;;;;23.10;33.67;102606.06;5070503;28;20020;-75
2021/04/24 07:49:54;;;;;;;14.57;6.88;;;;;;;23.29;33.18;102601.81;5069913;28;20497;-74
2021/04/24 07:52:21;;;;;;;9.90;6.40;;;;;;;23.40;32.99;102605.69;5069971;28;20514;-75
2021/04/24 07:54:46;;;;;;;15.18;7.20;;;;;;;23.43;32.89;102605.81;5069990;28;20025;-74
2021/04/24 07:57:14;;;;;;;10.57;7.05;;;;;;;23.38;33.08;102608.03;5069713;28;20182;-74
2021/04/24 07:59:40;;;;;;;10.48;6.65;;;;;;;23.47;32.88;102605.91;5070009;28;20475;-75
2021/04/24 08:02:06;;;;;;;15.02;7.75;;;;;;;23.40;32.99;102614.06;5070159;28;20032;-76
2021/04/24 08:04:32;;;;;;;16.08;6.70;;;;;;;23.76;32.76;102602.75;5070298;28;20031;-74
2021/04/24 08:06:57;;;;;;;14.10;6.30;;;;;;;23.80;32.69;102606.44;5070147;28;20024;-75
2021/04/24 08:09:23;;;;;;;13.82;6.30;;;;;;;23.81;32.51;102607.25;5070113;28;20020;-73
2021/04/24 08:11:49;;;;;;;13.90;5.95;;;;;;;23.88;32.04;102599.06;5074037;28;20107;-74
2021/04/24 08:14:15;;;;;;;11.23;6.20;;;;;;;24.05;31.78;102611.84;5074171;28;20474;-76
2021/04/24 08:16:41;;;;;;;14.40;6.20;;;;;;;24.27;31.30;102611.22;5074045;28;20023;-74
2021/04/24 08:19:06;;;;;;;10.43;5.22;;;;;;;24.15;31.47;102600.13;5074297;28;20491;-75
2021/04/24 08:21:32;;;;;;;10.05;5.55;;;;;;;24.29;31.33;102603.28;5074670;28;20020;-75
2021/04/24 08:24:00;;;;;;;11.25;6.38;;;;;;;24.11;31.25;102610.41;5068099;28;20020;-74
2021/04/24 08:26:29;;;;;;;12.07;5.70;;;;;;;24.15;31.12;102602.13;5071616;28;20016;-77
2021/04/24 08:28:55;;;;;;;9.43;6.00;;;;;;;24.15;31.10;102608.50;5073859;28;20036;-75
2021/04/24 08:31:21;;;;;;;9.63;5.70;;;;;;;24.07;31.24;102607.53;5069237;28;20041;-78
2021/04/24 08:33:47;;;;;;;13.20;6.90;;;;;;;24.05;31.30;102611.84;5068673;27;20047;-76
2021/04/24 08:36:13;;;;;;;7.60;4.60;;;;;;;23.95;31.52;102606.78;5073030;28;20096;-76
2021/04/24 08:38:39;;;;;;;11.13;5.82;;;;;;;23.84;30.98;102605.72;5071129;28;20123;-76
2021/04/24 08:41:06;;;;;;;9.48;5.78;;;;;;;23.81;30.20;102604.47;5073312;28;20020;-77
2021/04/24 08:43:36;;;;;;;10.73;5.07;;;;;;;23.75;30.57;102615.06;5057220;28;20578;-76
2021/04/24 08:46:02;;;;;;;11.40;5.72;;;;;;;23.99;29.94;102613.28;5056646;28;20538;-77
2021/04/24 08:48:28;;;;;;;12.85;6.25;;;;;;;24.12;30.34;102614.84;5071585;28;20033;-79
2021/04/24 08:50:55;;;;;;;12.68;4.80;;;;;;;24.30;30.42;102618.06;5070701;28;20029;-78
2021/04/24 08:53:20;;;;;;;11.02;5.22;;;;;;;24.03;30.86;102625.34;5071922;28;20089;-74
2021/04/24 08:55:47;;;;;;;9.07;4.88;;;;;;;24.27;30.27;102611.22;5072841;28;20418;-76
2021/04/24 08:58:14;;;;;;;9.40;5.18;;;;;;;24.47;30.08;102611.28;5071339;28;20120;-79
2021/04/24 09:00:41;;;;;;;10.52;4.57;;;;;;;24.26;30.28;102606.81;5066213;28;20028;-79
2021/04/24 09:03:09;;;;;;;10.35;5.60;;;;;;;24.41;29.60;102613.56;5071406;27;20155;-77
2021/04/24 09:05:36;;;;;;;10.73;5.00;;;;;;;24.55;29.65;102622.28;5072212;28;20428;-77
2021/04/24 09:08:05;;;;;;;11.23;5.68;;;;;;;24.65;29.19;102626.50;5072289;27;20031;-76
2021/04/24 09:10:43;;;;;;;8.65;5.03;;;;;;;24.59;28.77;102625.97;5071691;28;20044;-75
2021/04/24 09:13:17;;;;;;;18.60;5.45;;;;;;;24.47;28.69;102614.09;5070762;28;20024;-76
2021/04/24 09:15:43;;;;;;;7.75;5.50;;;;;;;24.29;28.41;102622.03;5071422;28;20066;-77
2021/04/24 09:18:11;;;;;;;11.75;4.97;;;;;;;24.40;28.17;102622.31;5070012;28;20036;-76
2021/04/24 09:20:55;;;;;;;8.38;4.93;;;;;;;24.34;27.92;102614.22;5070312;28;20029;-75
2021/04/24 09:23:35;;;;;;;12.23;5.47;;;;;;;24.18;27.84;102605.00;5069554;28;20600;-76
2021/04/24 09:26:02;;;;;;;;;;;;;;;23.79;28.36;102621.56;5069953;28;20013;-75
2021/04/24 09:28:32;;;;;;;13.30;6.20;;;;;;;24.66;27.79;102616.94;5070522;27;20049;-76
2021/04/24 09:30:59;;;;;;;10.50;5.82;;;;;;;24.62;27.89;102618.84;5068587;28;20045;-73
2021/04/24 09:33:34;;;;;;;10.52;5.45;;;;;;;24.60;27.57;102616.41;5069593;28;20017;-75
2021/04/24 09:36:00;;;;;;;11.55;4.97;;;;;;;24.77;27.56;102626.38;5070885;28;20025;-75
2021/04/24 09:38:32;;;;;;;10.38;4.75;;;;;;;24.80;27.29;102628.44;5070222;28;20113;-75
2021/04/24 09:41:27;;;;;;;9.45;4.90;;;;;;;24.50;27.58;102618.97;5070651;28;20032;-76
2021/04/24 09:43:56;;;;;;;7.65;5.32;;;;;;;24.77;27.23;102631.97;5071145;27;20464;-76
2021/04/24 09:46:54;;;;;;;8.98;5.25;;;;;;;24.63;27.99;102631.63;5067980;28;20023;-76
2021/04/24 09:49:24;;;;;;;11.50;5.00;;;;;;;24.98;27.54;102636.41;5068355;28;20111;-76
2021/04/24 09:52:03;;;;;;;15.32;6.22;;;;;;;24.82;28.89;102637.28;5070514;28;20023;-78
2021/04/24 09:54:37;;;;;;;11.63;5.45;;;;;;;24.98;29.30;102628.84;5069023;27;20036;-76
2021/04/24 09:57:22;;;;;;;8.90;5.05;;;;;;;24.78;29.05;102646.75;5068947;28;20020;-77
2021/04/24 09:59:50;;;;;;;14.77;5.63;;;;;;;24.89;28.47;102654.22;5068466;28;20059;-76
2021/04/24 10:02:34;;;;;;;12.52;6.13;;;;;;;24.85;29.30;102656.09;5063946;28;20024;-76
2021/04/24 10:05:12;;;;;;;15.15;7.07;;;;;;;25.02;29.67;102637.31;5069613;27;20045;-75
2021/04/24 10:07:40;;;;;;;15.90;5.22;;;;;;;24.78;29.51;102649.53;5069468;28;20493;-75
2021/04/24 10:10:11;;;;;;;11.98;6.15;;;;;;;24.70;29.19;102654.16;5069695;28;20033;-74
2021/04/24 10:12:38;;;;;;;13.32;5.93;;;;;;;24.78;29.14;102649.53;5069518;28;20119;-84
2021/04/24 10:15:05;;;;;;;8.73;5.95;;;;;;;25.09;29.09;102649.50;5069436;28;20041;-77
2021/04/24 10:17:31;;;;;;;13.35;6.40;;;;;;;24.98;28.80;102654.00;5068158;28;20021;-76
2021/04/24 10:19:58;;;;;;;11.25;5.55;;;;;;;24.98;27.83;102659.59;5069729;28;20115;-76
2021/04/24 10:22:24;;;;;;;12.23;5.55;;;;;;;24.88;28.09;102660.19;5068648;28;20033;-77
2021/04/24 10:24:51;;;;;;;9.60;5.28;;;;;;;24.94;27.44;102666.28;5069444;27;20039;-77
2021/04/24 10:27:19;;;;;;;8.10;4.60;;;;;;;25.13;27.01;102669.13;5068959;28;20084;-76
2021/04/24 10:29:46;;;;;;;8.50;5.00;;;;;;;24.81;27.15;102660.81;5067589;28;20469;-78
2021/04/24 10:32:13;;;;;;;10.45;5.03;;;;;;;25.22;27.08;102666.94;5064721;27;20040;-78
2021/04/24 10:34:39;;;;;;;10.27;5.75;;;;;;;25.26;27.17;102662.22;5069875;28;20027;-79
2021/04/24 10:37:06;;;;;;;12.43;5.03;;;;;;;25.41;26.05;102663.34;5071374;28;20025;-86
2021/04/24 10:39:34;;;;;;;7.05;3.72;;;;;;;25.40;25.57;102658.94;5071146;28;20391;-76
2021/04/24 10:42:08;;;;;;;10.75;5.22;;;;;;;25.24;26.23;102664.59;5072967;28;20028;-83
2021/04/24 10:44:51;;;;;;;7.05;4.80;;;;;;;25.20;25.69;102671.28;5068434;28;20032;-76
2021/04/24 10:50:08;;;;;;;7.80;4.22;;;;;;;25.47;25.43;102664.66;5069614;28;20543;-78
2021/04/24 10:52:33;;;;;;;7.80;4.50;;;;;;;25.58;25.46;102678.88;5058981;28;20036;-75
2021/04/24 10:55:20;;;;;;;7.82;4.22;;;;;;;25.65;25.33;102667.81;5053888;28;20033;-76
2021/04/24 10:57:57;;;;;;;7.93;4.35;;;;;;;25.77;25.24;102678.03;5055694;28;20151;-78
2021/04/24 11:00:29;;;;;;;8.90;4.20;;;;;;;25.39;24.86;102676.88;5061740;28;20040;-76
2021/04/24 11:02:57;;;;;;;7.75;5.07;;;;;;;25.67;24.64;102676.63;5055941;28;20032;-77
2021/04/24 11:05:28;;;;;;;9.60;3.78;;;;;;;25.86;24.76;102673.84;5056690;28;20032;-76
2021/04/24 11:08:12;;;;;;;11.35;4.25;;;;;;;25.82;25.35;102672.97;5056002;28;20078;-77
2021/04/24 11:10:55;;;;;;;8.02;4.10;;;;;;;25.69;24.70;102680.72;5060978;28;20199;-76
2021/04/24 11:13:22;;;;;;;9.02;4.75;;;;;;;25.62;24.72;102671.34;5056342;28;20167;-76
2021/04/24 11:15:48;;;;;;;9.50;5.47;;;;;;;26.02;24.67;102676.53;5055409;28;20020;-76
2021/04/24 11:18:16;;;;;;;7.10;4.18;;;;;;;26.12;24.67;102675.09;5055443;28;20032;-76
2021/04/24 11:21:11;;;;;;;9.10;5.00;;;;;;;26.03;25.13;102680.16;5054993;28;20044;-76